Main page
METAR-TAF:

METAR-TAF

Airports :

Albert – Picardie Airport

Albert, France

latitude: 49-58-21N, longitude: 002-41-29E, elevation: 111 m

Current weather observation

The report was made 33 minutes ago, at 23:30 UTC
Wind 6 kt from the West/Northwest
Temperature 3°C
Humidity 93%
Pressure 1010 hPa
Visibility 10 km or more
no clouds below 1500 m and no cumulonimbus

METAR: LFAQ 172330Z AUTO 30006KT CAVOK 03/02 Q1010

Time: 01:03 (00:03 UTC)

Forecast

The report was made 10 hours and 3 minutes ago, at 14:00 UTC
Forecast valid from 17 at 15 UTC to 17 at 24 UTC
Wind 7 kt from the North/Northeast
Visibility 10 km or more
no clouds below 1500 m and no cumulonimbus
Becoming
from 17 at 17 UTC to 17 at 19 UTC
Visibility: 3000 m
mist
Becoming
from 17 at 20 UTC to 17 at 23 UTC
Visibility: 0300 m
fog

TAF: LFAQ 171400Z 1715/1724 02007KT CAVOK BECMG 1717/1719 3000 BR BECMG 1720/1723 0300 FG VV///

Weather observations and forecasts of more than 4000 airports (METAR and TAF reports).

The available stations are represented by yellow and red dots on the map.

Hover mouse over dot to see the name of the station.

Then click to see weather observations and forecasts.

To change the map : click on the green buttons with a black cross to zoom in, on the green button with a dash to zoom out, or on the green arrows for adjacent maps.


METAR-TAF: